sensor_id;sensor_type;location;lat;lon;timestamp;pressure;altitude;pressure_sealevel;temperature;humidity
39681;BME280;26327;42.550;23.120;2023-02-19T08:04:15;93154.78;;;10.38;58.24
39681;BME280;26327;42.550;23.120;2023-02-19T08:06:51;93204.06;;;11.46;55.09
39681;BME280;26327;42.550;23.120;2023-02-19T08:09:17;93251.00;;;13.36;50.34
39681;BME280;26327;42.550;23.120;2023-02-19T08:11:42;93245.28;;;15.39;45.05
39681;BME280;26327;42.550;23.120;2023-02-19T08:14:26;93176.81;;;17.36;37.92
39681;BME280;26327;42.550;23.120;2023-02-19T08:16:52;93180.97;;;18.92;33.38
39681;BME280;26327;42.550;23.120;2023-02-19T08:19:18;93230.06;;;21.45;28.81
39681;BME280;26327;42.550;23.120;2023-02-19T08:21:44;93134.50;;;22.42;26.11
39681;BME280;26327;42.550;23.120;2023-02-19T08:24:09;93239.56;;;25.58;23.20
39681;BME280;26327;42.550;23.120;2023-02-19T08:26:36;93234.72;;;27.27;21.77
39681;BME280;26327;42.550;23.120;2023-02-19T08:29:02;93236.22;;;28.42;20.03
39681;BME280;26327;42.550;23.120;2023-02-19T08:31:28;93207.47;;;29.11;18.37
39681;BME280;26327;42.550;23.120;2023-02-19T08:33:53;93223.09;;;30.08;17.64
39681;BME280;26327;42.550;23.120;2023-02-19T08:36:19;93208.34;;;30.89;17.24
39681;BME280;26327;42.550;23.120;2023-02-19T08:38:44;93206.34;;;31.63;15.97
39681;BME280;26327;42.550;23.120;2023-02-19T08:41:12;93215.97;;;33.04;15.60
39681;BME280;26327;42.550;23.120;2023-02-19T08:43:38;93138.88;;;33.65;14.79
39681;BME280;26327;42.550;23.120;2023-02-19T08:46:04;93222.03;;;31.98;15.24
39681;BME280;26327;42.550;23.120;2023-02-19T08:48:31;93209.91;;;33.77;13.79
39681;BME280;26327;42.550;23.120;2023-02-19T08:50:59;93182.75;;;32.77;14.65
39681;BME280;26327;42.550;23.120;2023-02-19T08:53:29;93201.94;;;35.02;13.42
39681;BME280;26327;42.550;23.120;2023-02-19T08:55:54;93155.19;;;33.77;13.50
39681;BME280;26327;42.550;23.120;2023-02-19T08:58:20;93163.22;;;34.81;12.83
39681;BME280;26327;42.550;23.120;2023-02-19T09:00:46;93151.91;;;35.34;12.90
39681;BME280;26327;42.550;23.120;2023-02-19T09:03:11;93205.63;;;35.27;12.29
39681;BME280;26327;42.550;23.120;2023-02-19T09:05:37;93205.03;;;34.14;14.00
39681;BME280;26327;42.550;23.120;2023-02-19T09:08:03;93194.81;;;35.65;12.14
39681;BME280;26327;42.550;23.120;2023-02-19T09:10:28;93135.94;;;35.50;12.77
39681;BME280;26327;42.550;23.120;2023-02-19T09:12:54;93191.06;;;32.90;14.51
39681;BME280;26327;42.550;23.120;2023-02-19T09:15:19;93175.38;;;34.40;13.17
39681;BME280;26327;42.550;23.120;2023-02-19T09:17:50;93176.94;;;33.24;14.00
39681;BME280;26327;42.550;23.120;2023-02-19T09:20:15;93183.66;;;33.04;13.97
39681;BME280;26327;42.550;23.120;2023-02-19T09:22:41;93084.66;;;29.85;15.79
39681;BME280;26327;42.550;23.120;2023-02-19T09:25:06;93102.19;;;30.42;15.72
39681;BME280;26327;42.550;23.120;2023-02-19T09:27:32;93166.56;;;31.66;15.13
39681;BME280;26327;42.550;23.120;2023-02-19T09:29:57;93146.81;;;34.22;13.73
39681;BME280;26327;42.550;23.120;2023-02-19T09:32:23;93147.38;;;36.18;12.25
39681;BME280;26327;42.550;23.120;2023-02-19T09:34:48;93126.94;;;32.61;14.10
39681;BME280;26327;42.550;23.120;2023-02-19T09:37:14;93170.13;;;33.83;13.50
39681;BME280;26327;42.550;23.120;2023-02-19T09:39:39;93162.00;;;35.46;12.71
39681;BME280;26327;42.550;23.120;2023-02-19T09:42:14;93173.25;;;33.11;13.28
39681;BME280;26327;42.550;23.120;2023-02-19T09:44:45;93116.00;;;35.33;12.41
39681;BME280;26327;42.550;23.120;2023-02-19T09:47:18;93151.38;;;35.70;11.75
39681;BME280;26327;42.550;23.120;2023-02-19T09:49:46;93102.59;;;36.41;11.74
39681;BME280;26327;42.550;23.120;2023-02-19T09:52:32;93141.69;;;38.67;10.44
39681;BME280;26327;42.550;23.120;2023-02-19T09:55:04;93132.97;;;38.89;10.30
39681;BME280;26327;42.550;23.120;2023-02-19T09:57:37;93094.88;;;37.86;10.36
39681;BME280;26327;42.550;23.120;2023-02-19T10:00:20;93086.00;;;37.37;10.65
39681;BME280;26327;42.550;23.120;2023-02-19T10:02:46;93124.59;;;36.85;10.98
39681;BME280;26327;42.550;23.120;2023-02-19T10:05:15;93066.38;;;37.28;11.21
39681;BME280;26327;42.550;23.120;2023-02-19T10:07:44;93095.13;;;33.68;13.17
39681;BME280;26327;42.550;23.120;2023-02-19T10:12:51;93084.78;;;34.86;12.53
39681;BME280;26327;42.550;23.120;2023-02-19T10:15:29;93040.25;;;35.51;11.90
39681;BME280;26327;42.550;23.120;2023-02-19T10:17:56;93060.84;;;38.17;10.64
39681;BME280;26327;42.550;23.120;2023-02-19T10:20:24;93086.91;;;36.80;11.35
39681;BME280;26327;42.550;23.120;2023-02-19T10:23:02;93085.06;;;30.24;15.24
39681;BME280;26327;42.550;23.120;2023-02-19T10:25:28;93035.84;;;30.89;14.96
39681;BME280;26327;42.550;23.120;2023-02-19T10:27:57;93023.84;;;30.86;15.16
39681;BME280;26327;42.550;23.120;2023-02-19T10:30:28;93084.09;;;29.12;16.19
39681;BME280;26327;42.550;23.120;2023-02-19T10:33:02;93039.19;;;27.61;17.71
39681;BME280;26327;42.550;23.120;2023-02-19T10:35:28;93078.72;;;28.70;16.87
39681;BME280;26327;42.550;23.120;2023-02-19T10:37:54;93010.59;;;29.42;16.76
39681;BME280;26327;42.550;23.120;2023-02-19T10:40:26;92998.31;;;31.47;14.61
39681;BME280;26327;42.550;23.120;2023-02-19T10:42:55;93046.63;;;32.76;14.34
39681;BME280;26327;42.550;23.120;2023-02-19T10:45:27;92968.91;;;35.22;12.83
39681;BME280;26327;42.550;23.120;2023-02-19T10:47:56;93035.91;;;36.24;11.84
39681;BME280;26327;42.550;23.120;2023-02-19T10:50:27;93043.31;;;36.73;11.92
39681;BME280;26327;42.550;23.120;2023-02-19T10:52:56;93034.41;;;36.72;11.63
39681;BME280;26327;42.550;23.120;2023-02-19T10:57:47;93032.41;;;32.84;13.51
39681;BME280;26327;42.550;23.120;2023-02-19T11:02:40;93014.59;;;34.86;11.93
39681;BME280;26327;42.550;23.120;2023-02-19T11:07:49;92980.34;;;36.27;10.93
39681;BME280;26327;42.550;23.120;2023-02-19T11:10:33;93007.72;;;38.31;10.11
39681;BME280;26327;42.550;23.120;2023-02-19T11:13:02;92956.59;;;37.46;10.56
39681;BME280;26327;42.550;23.120;2023-02-19T11:18:06;92962.97;;;34.87;12.28
39681;BME280;26327;42.550;23.120;2023-02-19T11:20:53;92978.38;;;35.28;12.26
39681;BME280;26327;42.550;23.120;2023-02-19T11:23:28;92918.38;;;35.44;11.38
39681;BME280;26327;42.550;23.120;2023-02-19T11:25:57;92970.19;;;33.81;12.27
39681;BME280;26327;42.550;23.120;2023-02-19T11:28:34;92975.63;;;32.46;14.08
39681;BME280;26327;42.550;23.120;2023-02-19T11:33:52;92905.94;;;33.19;12.87
39681;BME280;26327;42.550;23.120;2023-02-19T11:36:25;92965.47;;;32.26;13.35
39681;BME280;26327;42.550;23.120;2023-02-19T11:38:52;92946.03;;;34.10;13.41
39681;BME280;26327;42.550;23.120;2023-02-19T11:52:08;92924.22;;;37.25;10.79
39681;BME280;26327;42.550;23.120;2023-02-19T11:57:43;92893.53;;;35.95;11.28
39681;BME280;26327;42.550;23.120;2023-02-19T12:00:18;92937.59;;;38.18;10.22
39681;BME280;26327;42.550;23.120;2023-02-19T12:02:57;92917.09;;;38.67;10.13
39681;BME280;26327;42.550;23.120;2023-02-19T12:25:27;92853.34;;;28.88;16.37
39681;BME280;26327;42.550;23.120;2023-02-19T12:36:49;92814.44;;;25.99;19.03
39681;BME280;26327;42.550;23.120;2023-02-19T12:39:53;92873.41;;;25.72;19.33
39681;BME280;26327;42.550;23.120;2023-02-19T12:47:40;92789.66;;;22.61;21.90
39681;BME280;26327;42.550;23.120;2023-02-19T12:50:18;92857.69;;;22.88;22.29
39681;BME280;26327;42.550;23.120;2023-02-19T12:52:49;92853.31;;;22.40;23.37
39681;BME280;26327;42.550;23.120;2023-02-19T12:55:28;92834.56;;;21.65;24.47
39681;BME280;26327;42.550;23.120;2023-02-19T12:57:58;92740.78;;;20.08;24.70
39681;BME280;26327;42.550;23.120;2023-02-19T13:00:46;92844.19;;;19.94;25.93
39681;BME280;26327;42.550;23.120;2023-02-19T13:11:53;92742.16;;;19.37;27.31
39681;BME280;26327;42.550;23.120;2023-02-19T13:19:55;92795.00;;;18.55;28.19
39681;BME280;26327;42.550;23.120;2023-02-19T13:22:38;92762.34;;;17.86;28.85
39681;BME280;26327;42.550;23.120;2023-02-19T13:25:47;92744.44;;;18.07;29.64
39681;BME280;26327;42.550;23.120;2023-02-19T13:31:11;92726.84;;;18.07;29.67
39681;BME280;26327;42.550;23.120;2023-02-19T13:34:08;92767.66;;;18.56;29.18
39681;BME280;26327;42.550;23.120;2023-02-19T13:36:39;92715.28;;;17.97;29.90
39681;BME280;26327;42.550;23.120;2023-02-19T13:39:06;92767.31;;;18.06;30.36
39681;BME280;26327;42.550;23.120;2023-02-19T13:41:51;92778.28;;;18.38;29.70
39681;BME280;26327;42.550;23.120;2023-02-19T13:44:19;92723.56;;;17.58;30.77
39681;BME280;26327;42.550;23.120;2023-02-19T13:46:47;92682.44;;;16.92;30.72
39681;BME280;26327;42.550;23.120;2023-02-19T13:51:57;92761.94;;;17.59;31.01
39681;BME280;26327;42.550;23.120;2023-02-19T13:54:24;92773.59;;;18.05;30.28
39681;BME280;26327;42.550;23.120;2023-02-19T13:59:45;92766.56;;;17.46;30.85
39681;BME280;26327;42.550;23.120;2023-02-19T14:02:32;92770.53;;;17.37;31.92
39681;BME280;26327;42.550;23.120;2023-02-19T14:05:00;92644.59;;;17.00;31.24
39681;BME280;26327;42.550;23.120;2023-02-19T14:09:52;92737.00;;;17.50;31.42
39681;BME280;26327;42.550;23.120;2023-02-19T14:12:20;92690.72;;;17.38;31.28
39681;BME280;26327;42.550;23.120;2023-02-19T14:28:12;92748.06;;;17.11;32.77
39681;BME280;26327;42.550;23.120;2023-02-19T14:33:37;92724.94;;;17.01;32.77
39681;BME280;26327;42.550;23.120;2023-02-19T14:38:40;92620.31;;;16.26;33.08
39681;BME280;26327;42.550;23.120;2023-02-19T14:41:10;92734.84;;;16.99;33.13
39681;BME280;26327;42.550;23.120;2023-02-19T14:43:38;92720.22;;;16.91;32.94
39681;BME280;26327;42.550;23.120;2023-02-19T14:49:31;92718.94;;;17.12;32.46
39681;BME280;26327;42.550;23.120;2023-02-19T14:52:02;92700.50;;;17.30;33.07
39681;BME280;26327;42.550;23.120;2023-02-19T14:57:16;92709.44;;;17.71;31.86
39681;BME280;26327;42.550;23.120;2023-02-19T14:59:54;92693.81;;;17.05;32.58
39681;BME280;26327;42.550;23.120;2023-02-19T15:02:20;92656.19;;;16.81;32.92
39681;BME280;26327;42.550;23.120;2023-02-19T15:04:46;92715.44;;;17.18;31.30
39681;BME280;26327;42.550;23.120;2023-02-19T15:07:18;92684.13;;;17.05;30.99
39681;BME280;26327;42.550;23.120;2023-02-19T15:09:48;92707.16;;;17.03;31.15
39681;BME280;26327;42.550;23.120;2023-02-19T15:12:20;92649.84;;;16.52;30.55
39681;BME280;26327;42.550;23.120;2023-02-19T15:14:47;92701.66;;;16.75;30.00
39681;BME280;26327;42.550;23.120;2023-02-19T15:17:38;92693.78;;;16.56;30.59
39681;BME280;26327;42.550;23.120;2023-02-19T15:20:08;92626.50;;;15.95;31.43
39681;BME280;26327;42.550;23.120;2023-02-19T15:22:38;92712.00;;;16.33;31.61
39681;BME280;26327;42.550;23.120;2023-02-19T15:25:06;92716.22;;;16.16;31.79
39681;BME280;26327;42.550;23.120;2023-02-19T15:27:31;92711.72;;;15.98;32.53
39681;BME280;26327;42.550;23.120;2023-02-19T15:29:58;92706.13;;;15.94;32.04
39681;BME280;26327;42.550;23.120;2023-02-19T15:32:26;92594.06;;;15.28;32.10
39681;BME280;26327;42.550;23.120;2023-02-19T15:34:56;92719.88;;;15.90;31.78
39681;BME280;26327;42.550;23.120;2023-02-19T15:37:23;92703.78;;;15.86;32.02
39681;BME280;26327;42.550;23.120;2023-02-19T15:39:51;92723.06;;;15.92;31.47
39681;BME280;26327;42.550;23.120;2023-02-19T15:42:20;92688.63;;;15.70;31.36
39681;BME280;26327;42.550;23.120;2023-02-19T15:50:29;92743.94;;;15.80;33.15
39681;BME280;26327;42.550;23.120;2023-02-19T15:53:00;92750.34;;;15.84;32.42
39681;BME280;26327;42.550;23.120;2023-02-19T15:55:35;92755.16;;;15.62;31.84
39681;BME280;26327;42.550;23.120;2023-02-19T16:00:31;92764.88;;;15.17;33.06
39681;BME280;26327;42.550;23.120;2023-02-19T16:03:00;92727.34;;;14.92;33.14
39681;BME280;26327;42.550;23.120;2023-02-19T16:05:26;92689.72;;;14.48;33.26
39681;BME280;26327;42.550;23.120;2023-02-19T16:10:34;92740.19;;;14.55;34.47
39681;BME280;26327;42.550;23.120;2023-02-19T16:13:02;92782.25;;;14.98;34.30
39681;BME280;26327;42.550;23.120;2023-02-19T16:15:30;92770.72;;;14.68;34.63
39681;BME280;26327;42.550;23.120;2023-02-19T16:17:56;92682.03;;;13.95;35.22
39681;BME280;26327;42.550;23.120;2023-02-19T16:20:27;92730.59;;;14.23;35.16
39681;BME280;26327;42.550;23.120;2023-02-19T16:23:02;92737.84;;;14.14;35.39
39681;BME280;26327;42.550;23.120;2023-02-19T16:25:32;92773.63;;;14.13;35.88
39681;BME280;26327;42.550;23.120;2023-02-19T16:28:19;92778.44;;;14.30;36.21
39681;BME280;26327;42.550;23.120;2023-02-19T16:30:45;92726.41;;;14.08;37.05
39681;BME280;26327;42.550;23.120;2023-02-19T16:35:48;92798.16;;;14.19;36.69
39681;BME280;26327;42.550;23.120;2023-02-19T16:38:17;92726.88;;;13.72;38.15
39681;BME280;26327;42.550;23.120;2023-02-19T16:43:27;92791.50;;;13.64;36.90
39681;BME280;26327;42.550;23.120;2023-02-19T16:45:55;92740.19;;;12.90;37.57
39681;BME280;26327;42.550;23.120;2023-02-19T16:48:21;92781.75;;;13.05;37.59
39681;BME280;26327;42.550;23.120;2023-02-19T16:50:47;92776.72;;;13.10;37.54
39681;BME280;26327;42.550;23.120;2023-02-19T16:53:21;92789.94;;;13.02;37.78
39681;BME280;26327;42.550;23.120;2023-02-19T16:55:46;92753.41;;;12.82;37.60
39681;BME280;26327;42.550;23.120;2023-02-19T16:58:12;92812.91;;;13.19;37.80
39681;BME280;26327;42.550;23.120;2023-02-19T17:00:37;92820.38;;;13.29;38.58
39681;BME280;26327;42.550;23.120;2023-02-19T17:03:10;92818.94;;;13.20;39.99
39681;BME280;26327;42.550;23.120;2023-02-19T17:05:37;92827.03;;;13.38;39.41
39681;BME280;26327;42.550;23.120;2023-02-19T17:10:59;92756.28;;;13.13;40.41
39681;BME280;26327;42.550;23.120;2023-02-19T17:13:26;92827.84;;;13.45;41.05
39681;BME280;26327;42.550;23.120;2023-02-19T17:15:51;92828.44;;;13.47;40.68
39681;BME280;26327;42.550;23.120;2023-02-19T17:18:17;92842.00;;;13.23;42.06
39681;BME280;26327;42.550;23.120;2023-02-19T17:20:44;92838.41;;;13.24;41.76
39681;BME280;26327;42.550;23.120;2023-02-19T17:23:13;92770.75;;;12.61;42.04
39681;BME280;26327;42.550;23.120;2023-02-19T17:25:39;92839.94;;;13.12;43.21
39681;BME280;26327;42.550;23.120;2023-02-19T17:28:04;92816.47;;;12.29;45.24
39681;BME280;26327;42.550;23.120;2023-02-19T17:30:31;92848.88;;;12.48;46.40
39681;BME280;26327;42.550;23.120;2023-02-19T17:32:56;92855.94;;;12.26;46.84
39681;BME280;26327;42.550;23.120;2023-02-19T17:35:22;92861.13;;;12.26;46.65
39681;BME280;26327;42.550;23.120;2023-02-19T17:37:48;92790.84;;;11.98;45.37
39681;BME280;26327;42.550;23.120;2023-02-19T17:40:23;92876.28;;;12.38;45.62
39681;BME280;26327;42.550;23.120;2023-02-19T17:42:49;92865.84;;;12.38;44.18
39681;BME280;26327;42.550;23.120;2023-02-19T17:45:15;92872.53;;;11.97;47.18
39681;BME280;26327;42.550;23.120;2023-02-19T17:47:40;92876.47;;;11.87;49.65
39681;BME280;26327;42.550;23.120;2023-02-19T17:50:06;92884.81;;;12.04;48.19
39681;BME280;26327;42.550;23.120;2023-02-19T17:52:32;92891.28;;;11.72;49.95
39681;BME280;26327;42.550;23.120;2023-02-19T17:54:57;92864.06;;;11.31;50.20
39681;BME280;26327;42.550;23.120;2023-02-19T17:57:23;92869.38;;;11.59;49.77
39681;BME280;26327;42.550;23.120;2023-02-19T17:59:48;92873.22;;;11.63;49.61
39681;BME280;26327;42.550;23.120;2023-02-19T18:02:13;92845.03;;;11.46;49.05
39681;BME280;26327;42.550;23.120;2023-02-19T18:04:39;92844.22;;;11.45;50.14
39681;BME280;26327;42.550;23.120;2023-02-19T18:07:04;92898.13;;;10.42;56.05
39681;BME280;26327;42.550;23.120;2023-02-19T18:09:30;92886.91;;;10.85;55.27
39681;BME280;26327;42.550;23.120;2023-02-19T18:11:55;92899.16;;;11.21;53.33
39681;BME280;26327;42.550;23.120;2023-02-19T18:14:20;92886.63;;;11.10;52.93
39681;BME280;26327;42.550;23.120;2023-02-19T18:16:46;92909.69;;;10.83;53.39
39681;BME280;26327;42.550;23.120;2023-02-19T18:19:12;92836.72;;;10.11;55.48
39681;BME280;26327;42.550;23.120;2023-02-19T18:21:38;92887.44;;;10.22;57.58
39681;BME280;26327;42.550;23.120;2023-02-19T18:24:03;92925.50;;;10.29;58.63
39681;BME280;26327;42.550;23.120;2023-02-19T18:26:29;92908.00;;;10.61;55.54
39681;BME280;26327;42.550;23.120;2023-02-19T18:28:54;92869.63;;;10.33;55.62
39681;BME280;26327;42.550;23.120;2023-02-19T18:31:20;92861.69;;;9.97;57.48
39681;BME280;26327;42.550;23.120;2023-02-19T18:33:45;92913.56;;;10.58;55.89
39681;BME280;26327;42.550;23.120;2023-02-19T18:36:11;92849.34;;;10.14;55.80
39681;BME280;26327;42.550;23.120;2023-02-19T18:38:37;92864.97;;;9.91;56.53
39681;BME280;26327;42.550;23.120;2023-02-19T18:41:03;92941.00;;;10.23;57.55
39681;BME280;26327;42.550;23.120;2023-02-19T18:43:28;92949.75;;;9.76;60.28
39681;BME280;26327;42.550;23.120;2023-02-19T18:45:53;92959.31;;;9.53;61.67
39681;BME280;26327;42.550;23.120;2023-02-19T18:48:19;92935.25;;;8.41;66.56
39681;BME280;26327;42.550;23.120;2023-02-19T18:50:44;92931.03;;;8.48;68.56
39681;BME280;26327;42.550;23.120;2023-02-19T18:53:10;92940.31;;;8.90;66.86
39681;BME280;26327;42.550;23.120;2023-02-19T18:55:35;92960.34;;;9.35;64.29
39681;BME280;26327;42.550;23.120;2023-02-19T18:58:01;92969.94;;;9.66;62.90
39681;BME280;26327;42.550;23.120;2023-02-19T19:00:26;92953.50;;;9.73;62.12
39681;BME280;26327;42.550;23.120;2023-02-19T19:02:56;92892.81;;;9.29;61.63
39681;BME280;26327;42.550;23.120;2023-02-19T19:05:24;92952.75;;;9.34;62.13
39681;BME280;26327;42.550;23.120;2023-02-19T19:07:54;92889.13;;;8.45;65.09
39681;BME280;26327;42.550;23.120;2023-02-19T19:10:21;92964.69;;;8.57;67.66
39681;BME280;26327;42.550;23.120;2023-02-19T19:12:47;92986.31;;;8.88;68.21
39681;BME280;26327;42.550;23.120;2023-02-19T19:15:15;92960.34;;;8.25;70.16
39681;BME280;26327;42.550;23.120;2023-02-19T19:17:41;92972.13;;;8.60;69.01
39681;BME280;26327;42.550;23.120;2023-02-19T19:20:06;92937.38;;;8.21;69.36
39681;BME280;26327;42.550;23.120;2023-02-19T19:22:32;93005.38;;;9.03;66.91
39681;BME280;26327;42.550;23.120;2023-02-19T19:24:58;92926.22;;;8.21;67.82
39681;BME280;26327;42.550;23.120;2023-02-19T19:27:23;92947.28;;;8.81;65.53
39681;BME280;26327;42.550;23.120;2023-02-19T19:29:48;93005.31;;;9.20;63.99
39681;BME280;26327;42.550;23.120;2023-02-19T19:32:14;93007.31;;;9.09;64.60
39681;BME280;26327;42.550;23.120;2023-02-19T19:34:39;93001.75;;;9.21;63.96
39681;BME280;26327;42.550;23.120;2023-02-19T19:37:07;92914.63;;;8.72;62.79
39681;BME280;26327;42.550;23.120;2023-02-19T19:39:32;93012.50;;;9.09;64.67
39681;BME280;26327;42.550;23.120;2023-02-19T19:41:57;92969.84;;;8.73;67.77
39681;BME280;26327;42.550;23.120;2023-02-19T19:44:23;93001.78;;;9.12;65.59
39681;BME280;26327;42.550;23.120;2023-02-19T19:46:48;93011.22;;;9.05;67.57
39681;BME280;26327;42.550;23.120;2023-02-19T19:49:18;92949.81;;;8.42;68.22
39681;BME280;26327;42.550;23.120;2023-02-19T19:51:43;93022.91;;;8.85;68.35
39681;BME280;26327;42.550;23.120;2023-02-19T19:54:09;92953.06;;;8.12;69.43
39681;BME280;26327;42.550;23.120;2023-02-19T19:56:40;92991.03;;;7.63;74.43
39681;BME280;26327;42.550;23.120;2023-02-19T19:59:05;92997.28;;;7.52;75.60
39681;BME280;26327;42.550;23.120;2023-02-19T20:01:31;93043.66;;;8.12;74.42
39681;BME280;26327;42.550;23.120;2023-02-19T20:03:56;93042.06;;;8.68;70.37
39681;BME280;26327;42.550;23.120;2023-02-19T20:06:26;92977.66;;;8.40;69.48
39681;BME280;26327;42.550;23.120;2023-02-19T20:08:52;93030.88;;;8.67;69.35
39681;BME280;26327;42.550;23.120;2023-02-19T20:11:18;93050.09;;;8.89;69.33
39681;BME280;26327;42.550;23.120;2023-02-19T20:13:44;92939.97;;;7.97;71.02
39681;BME280;26327;42.550;23.120;2023-02-19T20:16:09;93056.28;;;8.72;71.66
39681;BME280;26327;42.550;23.120;2023-02-19T20:18:36;93061.81;;;8.61;72.66
39681;BME280;26327;42.550;23.120;2023-02-19T20:21:02;92989.38;;;7.45;75.46
39681;BME280;26327;42.550;23.120;2023-02-19T20:23:28;93053.97;;;7.96;76.60
39681;BME280;26327;42.550;23.120;2023-02-19T20:25:56;92968.25;;;7.66;75.06
39681;BME280;26327;42.550;23.120;2023-02-19T20:28:22;93057.59;;;8.60;72.58
39681;BME280;26327;42.550;23.120;2023-02-19T20:30:47;93051.59;;;8.67;70.81
39681;BME280;26327;42.550;23.120;2023-02-19T20:33:13;93009.06;;;8.37;71.84
39681;BME280;26327;42.550;23.120;2023-02-19T20:35:39;93015.19;;;8.28;71.59
39681;BME280;26327;42.550;23.120;2023-02-19T20:38:05;93063.72;;;8.50;73.20
39681;BME280;26327;42.550;23.120;2023-02-19T20:40:30;93087.88;;;8.67;72.93
39681;BME280;26327;42.550;23.120;2023-02-19T20:42:57;93092.81;;;8.20;73.18
39681;BME280;26327;42.550;23.120;2023-02-19T20:45:25;93063.00;;;7.92;76.28
39681;BME280;26327;42.550;23.120;2023-02-19T20:47:50;93066.34;;;8.34;74.01
39681;BME280;26327;42.550;23.120;2023-02-19T20:50:16;93088.00;;;8.33;73.78
39681;BME280;26327;42.550;23.120;2023-02-19T20:52:44;93057.41;;;8.12;74.60
39681;BME280;26327;42.550;23.120;2023-02-19T20:55:09;93072.00;;;8.46;72.40
39681;BME280;26327;42.550;23.120;2023-02-19T20:57:36;93070.53;;;8.76;71.53
39681;BME280;26327;42.550;23.120;2023-02-19T21:00:03;93024.22;;;8.32;72.42
39681;BME280;26327;42.550;23.120;2023-02-19T21:02:29;93086.22;;;8.82;72.13
39681;BME280;26327;42.550;23.120;2023-02-19T21:04:55;93077.16;;;9.03;70.55
39681;BME280;26327;42.550;23.120;2023-02-19T21:07:21;93103.72;;;9.05;71.75
39681;BME280;26327;42.550;23.120;2023-02-19T21:09:46;93068.41;;;8.79;72.92
39681;BME280;26327;42.550;23.120;2023-02-19T21:12:12;93093.03;;;8.83;73.33
39681;BME280;26327;42.550;23.120;2023-02-19T21:14:38;93000.63;;;8.35;72.70
39681;BME280;26327;42.550;23.120;2023-02-19T21:17:04;93015.34;;;8.43;73.44
39681;BME280;26327;42.550;23.120;2023-02-19T21:19:30;93078.31;;;8.76;72.61
39681;BME280;26327;42.550;23.120;2023-02-19T21:21:55;93032.84;;;8.41;73.35
39681;BME280;26327;42.550;23.120;2023-02-19T21:24:21;93116.16;;;8.93;73.03
39681;BME280;26327;42.550;23.120;2023-02-19T21:26:46;93038.81;;;8.66;73.48
39681;BME280;26327;42.550;23.120;2023-02-19T21:29:18;93091.88;;;8.94;73.32
39681;BME280;26327;42.550;23.120;2023-02-19T21:31:49;93091.53;;;8.97;71.30
39681;BME280;26327;42.550;23.120;2023-02-19T21:34:17;93124.28;;;9.06;71.68
39681;BME280;26327;42.550;23.120;2023-02-19T21:36:43;93040.13;;;8.54;70.63
39681;BME280;26327;42.550;23.120;2023-02-19T21:39:11;93035.59;;;8.56;71.66
39681;BME280;26327;42.550;23.120;2023-02-19T21:41:37;93036.56;;;8.55;70.51
39681;BME280;26327;42.550;23.120;2023-02-19T21:44:03;93042.34;;;8.32;71.64
39681;BME280;26327;42.550;23.120;2023-02-19T21:46:28;93106.66;;;8.53;73.72
39681;BME280;26327;42.550;23.120;2023-02-19T21:48:55;93047.34;;;8.01;74.33
39681;BME280;26327;42.550;23.120;2023-02-19T21:51:33;93132.03;;;8.33;75.95
39681;BME280;26327;42.550;23.120;2023-02-19T21:53:59;93126.31;;;8.21;76.57
39681;BME280;26327;42.550;23.120;2023-02-19T21:56:27;93117.75;;;8.21;75.95
39681;BME280;26327;42.550;23.120;2023-02-19T21:58:53;93020.88;;;7.49;77.07
39681;BME280;26327;42.550;23.120;2023-02-19T22:01:31;93115.41;;;8.02;78.08
39681;BME280;26327;42.550;23.120;2023-02-19T22:03:57;93057.00;;;7.75;77.17
39681;BME280;26327;42.550;23.120;2023-02-19T22:06:25;93129.88;;;8.20;76.69
39681;BME280;26327;42.550;23.120;2023-02-19T22:08:51;93111.81;;;7.78;78.69
39681;BME280;26327;42.550;23.120;2023-02-19T22:11:16;93060.81;;;7.54;78.28
39681;BME280;26327;42.550;23.120;2023-02-19T22:13:42;93136.06;;;7.77;80.46
39681;BME280;26327;42.550;23.120;2023-02-19T22:16:07;93135.47;;;8.00;79.42
39681;BME280;26327;42.550;23.120;2023-02-19T22:18:33;93125.69;;;7.69;79.28
39681;BME280;26327;42.550;23.120;2023-02-19T22:20:58;93057.84;;;7.41;78.86
39681;BME280;26327;42.550;23.120;2023-02-19T22:23:24;93109.53;;;7.75;78.20
39681;BME280;26327;42.550;23.120;2023-02-19T22:25:49;93109.38;;;7.77;79.21
39681;BME280;26327;42.550;23.120;2023-02-19T22:28:15;93105.69;;;7.87;78.54
39681;BME280;26327;42.550;23.120;2023-02-19T22:30:40;93138.31;;;7.80;78.95
39681;BME280;26327;42.550;23.120;2023-02-19T22:33:07;93087.63;;;7.53;79.28
39681;BME280;26327;42.550;23.120;2023-02-19T22:35:33;93151.19;;;7.64;80.46
39681;BME280;26327;42.550;23.120;2023-02-19T22:37:58;93136.91;;;7.52;80.76
39681;BME280;26327;42.550;23.120;2023-02-19T22:40:23;93170.94;;;7.65;80.95
39681;BME280;26327;42.550;23.120;2023-02-19T22:42:49;93170.34;;;7.79;80.71
39681;BME280;26327;42.550;23.120;2023-02-19T22:45:14;93147.47;;;7.33;80.99
39681;BME280;26327;42.550;23.120;2023-02-19T22:47:40;93116.19;;;7.10;82.38
39681;BME280;26327;42.550;23.120;2023-02-19T22:50:06;93140.06;;;7.38;81.13
39681;BME280;26327;42.550;23.120;2023-02-19T22:52:32;93164.22;;;7.20;82.81
39681;BME280;26327;42.550;23.120;2023-02-19T22:54:57;93187.91;;;7.42;82.00
39681;BME280;26327;42.550;23.120;2023-02-19T22:57:24;93190.34;;;7.69;79.48
39681;BME280;26327;42.550;23.120;2023-02-19T22:59:49;93165.03;;;7.55;80.59
